createdAt,value
2018-10-06T00:00:50.956Z,95649.59
2018-10-06T00:15:53.088Z,95646.52
2018-10-06T00:30:52.243Z,95641.84
2018-10-06T00:45:53.875Z,95642.13
2018-10-06T01:00:52.336Z,95632.94
2018-10-06T01:15:54.261Z,95637.72
2018-10-06T01:30:53.142Z,95638.53
2018-10-06T01:45:52.510Z,95628.80
2018-10-06T02:00:50.511Z,95637.76
2018-10-06T02:15:52.334Z,95639.89
2018-10-06T02:30:50.487Z,95634.91
2018-10-06T02:45:51.192Z,95635.44
2018-10-06T03:00:51.787Z,95624.92
2018-10-06T03:15:50.651Z,95622.04
2018-10-06T03:30:50.418Z,95619.65
2018-10-06T03:45:50.858Z,95611.77
2018-10-06T04:00:51.047Z,95613.87
2018-10-06T04:15:52.951Z,95600.47
2018-10-06T04:30:50.846Z,95604.42
2018-10-06T04:45:51.348Z,95590.78
2018-10-06T05:00:51.266Z,95601.02
2018-10-06T05:15:57.283Z,95604.23
2018-10-06T05:30:53.334Z,95587.39
2018-10-06T06:00:50.536Z,95599.55
2018-10-06T06:15:50.536Z,95610.25
2018-10-06T06:30:50.427Z,95611.40
2018-10-06T06:45:52.771Z,95616.00
2018-10-06T07:00:52.771Z,95622.30
2018-10-06T07:15:50.732Z,95619.01
2018-10-06T07:30:50.591Z,95621.73
2018-10-06T07:45:51.061Z,95610.56
2018-10-06T08:00:51.135Z,95598.16
2018-10-06T08:15:51.075Z,95587.86
2018-10-06T08:30:51.013Z,95569.43
2018-10-06T08:45:51.339Z,95553.01
2018-10-06T09:00:53.526Z,95531.69
2018-10-06T09:15:53.241Z,95512.63
2018-10-06T09:30:51.220Z,95496.30
2018-10-06T09:45:50.560Z,95480.83
2018-10-06T10:00:57.282Z,95455.72
2018-10-06T10:15:50.877Z,95425.41
2018-10-06T10:30:50.003Z,95397.61
2018-10-06T10:45:50.925Z,95367.01
2018-10-06T11:00:52.342Z,95326.94
2018-10-06T11:15:50.814Z,95306.04
2018-10-06T11:30:50.783Z,95284.19
2018-10-06T11:45:51.110Z,95262.66
2018-10-06T12:00:51.296Z,95234.42
2018-10-06T12:15:50.315Z,95217.95
2018-10-06T12:30:51.005Z,95194.41
2018-10-06T12:45:50.449Z,95184.98
2018-10-06T13:00:50.257Z,95156.30
2018-10-06T13:15:50.128Z,95138.81
2018-10-06T13:30:50.074Z,95123.87
2018-10-06T13:45:50.492Z,95100.93
2018-10-06T14:15:50.480Z,95087.52
2018-10-06T14:30:50.595Z,95089.42
2018-10-06T14:45:50.773Z,95078.22
2018-10-06T15:00:50.943Z,95062.78
2018-10-06T15:15:50.762Z,95056.20
2018-10-06T15:30:50.200Z,95047.10
2018-10-06T16:00:53.062Z,95036.15
2018-10-06T16:45:50.467Z,95042.37
2018-10-06T17:00:50.346Z,95037.58
2018-10-06T17:15:50.222Z,95039.91
2018-10-06T17:30:50.173Z,95047.39
2018-10-06T17:45:50.673Z,95055.50
2018-10-06T18:00:50.787Z,95052.73
2018-10-06T18:15:50.561Z,95051.66
2018-10-06T18:30:50.462Z,95043.71
2018-10-06T18:45:52.951Z,95051.19
2018-10-06T19:00:51.118Z,95059.59
2018-10-06T19:15:52.855Z,95060.05
2018-10-06T19:30:52.821Z,95053.17
2018-10-06T19:45:52.224Z,95049.06
2018-10-06T20:00:50.323Z,95059.69
2018-10-06T20:15:50.117Z,95053.87
2018-10-06T20:30:50.088Z,95061.67
2018-10-06T20:45:50.430Z,95055.34
2018-10-06T21:00:50.641Z,95060.97
2018-10-06T21:15:50.486Z,95047.31
2018-10-06T21:30:50.541Z,95042.79
2018-10-06T21:45:51.393Z,95037.07
2018-10-06T22:00:56.106Z,95031.95
2018-10-06T22:15:50.254Z,95032.14
2018-10-06T22:30:50.800Z,95028.42
2018-10-06T22:45:51.182Z,95033.64
2018-10-06T23:00:51.166Z,95036.34
2018-10-06T23:15:52.903Z,95036.51
2018-10-06T23:30:52.471Z,95044.90
2018-10-06T23:45:50.484Z,95041.92
